Hlavní strana
METAR-TAF:

METAR-TAF

Letiště :

Guelmim, Maroko

zeměpisná šířka: 29-01-00N, zeměpisná délka: 10-04-04W, výška: 301 m

METAR: chybějící

Čas: 07:33 (06:33 UTC)

Předpověď počasí

Zpráva byla vytvořena před 1 hodinou a 33 minutami, v 05:00 UTC
Předpověď platná od 30 v 06 UTC do 31 v 12 UTC
vítr z různých směrů 2 kt
Viditelnost: 8000 m
Polojasno ve výšce 1000 ft
Změna
od 30 v 06 UTC do 30 v 08 UTC

TAF: GMAG 300500Z 3006/3112 VRB02KT 8000 SCT010 BECMG 3006/3008 NSC

Stav a předpovědi počasí z více než 4 000 letišť (zprávy METAR a TAF).

Červené a žluté tečky na mapě představují dostupné meteorologické stanice.

Když kurzor umístíte na tečku, zobrazí se název stanice.

Pak kliknutím zobrazíte stav a předpověď počasí.

Chcete-li změnit mapu, kliknutím na zelené tlačítko se znaménkem +mapu přiblížíte, kliknutím na zelené tlačítko se znaménkem – mapu oddálíte a kliknutím na zelené šipky přejdete na sousední mapy.


METAR-TAF: